Kansas City, Missouri
Traffic Map
Current Weather Conditions
Kansas City, Missouri
Clear
Clear
69°
Feels Like: 69°
Wind Chill: 69° Ceiling: Unl
Heat Index: 69° Visibility: 10mi
Dew Point: 64° Wind: 0mph
Humidity: 84% Direction: ° ()
Pressure: 29.94in Gusts: 0mph
Raw Report DataKMKC 180854Z 00000KT 10SM CLR 21/18 A2994 RMK AO2 SLP132 T02060178 58003
Traffic Incident Summary
Active as of:
Severity:
Category:
InformationThere was an issue retrieving the traffic information for this location. Please try a different location or try again shortly.
Advertisements